Ride Results

Tumut Endurance (30-03-2018)
Ride distance: 80.0 km

Outcomes - Tumut Endurance (30-03-2018)
Division No. of Entries Retired / DNE Completed Withdrawn Ineligible V/O Percentage Completed
HW 5 - 4 1 - - 80.00%
MW 17 - 14 - - 3 82.35%
LW 9 - 9 - - - 100.00%
JN 8 - 8 - - - 100.00%
Totals 39 - 35 1 - 3 89.74%
Results - Tumut Endurance (30-03-2018)
No. Rider Horse Place Time Leg Speeds Total
Km/Hr
H/R bpm
Heavyweight
299 Shaun Jones Orion Al Saba 1 9:34:00 8.5, 8.1 8.36 35, 42, 48 (Avg:45)
216 Charles Gauci Charleville Nazarena 2 9:39:00 10.6, 6.7 8.29 52, 37, 53 (Avg:45)
275 Andrew Jonkers Girilambone Comet 2 (BC) 9:39:00 10.1, 6.9 8.29 32, 39, 49 (Avg:44)
154 Ian Dreghorn AusdenNile Prinz 4 10:04:00 8.3, 7.5 7.95 34, 45, 47 (Avg:46)
270 John Robertson Karabil Asis Withdrawn L1 0:00:00 - - 34, 40 (Avg:40)
Middleweight
262 Tayla Hadzi Oso Ellazandra 1 (BC) 6:10:00 12.4, 13.5 12.97 31, 43, 50 (Avg:46)
230 Ian Curtis Blake's Heaven Summer Wind 2 6:49:00 12.6, 10.9 11.74 37, 42, 55 (Avg:48)
252 Georgia Curry Mountain Breeze Just Annallusion 3 7:09:00 11.3, 11.0 11.19 45, 44, 51 (Avg:47)
267 Dean Walkom Tall Timbers Roberto 4 7:46:00 10.6, 9.9 10.30 37, 40, 52 (Avg:46)
225 Noni Seagrim Charadia Zignzag 5 7:48:00 10.7, 9.8 10.26 38, 50, 55 (Avg:52)
254 Clare Feary Die Kinder Junrei 6 8:13:00 10.4, 9.1 9.74 37, 40, 46 (Avg:43)
253 Darien Feary Avita 6 8:13:00 10.4, 9.1 9.74 34, 41, 50 (Avg:45)
272 Diletta Serfilippi Conderosa Ambrosio 6 8:13:00 10.2, 9.2 9.74 38, 36, 47 (Avg:41)
152 Susan Woodward Phoenix Fire 6 8:13:00 10.2, 9.2 9.74 48, 54, 49 (Avg:51)
263 Amelia Napier Brag Ngood 10 8:23:00 10.2, 8.9 9.54 34, 42, 46 (Avg:44)
220 Jenny Berg Sienna War Crimes 11 8:48:00 8.4, 9.8 9.09 38, 39, 60 (Avg:49)
300 Cody Holloway Zarafa 12 9:34:00 8.5, 8.1 8.36 34, 41, 43 (Avg:42)
151 Emily Streckfuss Webbs Creek Starlight 12 9:34:00 8.5, 8.1 8.36 34, 36, 42 (Avg:39)
276 Kylie Jonkers Girilambone Seedy Bub 14 10:03:00 8.5, 7.4 7.96 35, 44, 49 (Avg:46)
266 Monique Echentille Follydown Kadin Heart Rate L2 0:00:00 10.6, 9.9 - 39, 45, 66 (Avg:55)
273 Allison Knihinicki Newbury Zhahh Lame L2 0:00:00 7.2, 8.5 - 31, 44, 60 (Avg:52)
257 Talea Hasko-Stewart Blake's Heaven Bombora Lame L1 0:00:00 10.1 - 34, 40 (Avg:40)
Lightweight
294 Roz Edmunds Everon Park Apollo 1 7:42:00 12.6, 8.7 10.39 38, 45, 53 (Avg:49)
277 Julie Hooper A'Landell Enigma 2 (BC) 7:46:00 10.4, 10.1 10.30 37, 38, 54 (Avg:46)
223 Matthew Dunne Coolinda Park Kaliente 3 7:48:00 10.7, 9.8 10.26 38, 40, 44 (Avg:42)
210 Vanessa Richardson Rivergum Drover 3 7:48:00 10.7, 9.8 10.26 42, 38, 52 (Avg:45)
259 Fia Hasko-Stewart Blake's Heaven Venus 5 7:57:00 10.1, 9.9 10.06 37, 41, 54 (Avg:47)
264 Sorsha Stuart-Rokvic Cabrillas Heir 6 8:23:00 10.2, 8.9 9.54 38, 41, 53 (Avg:47)
249 Patricia Melchior Earlston Spa 7 8:48:00 8.4, 9.8 9.09 31, 40, 39 (Avg:39)
251 Meri Lategan Malvern Copperfield 8 8:51:00 9.7, 8.3 9.04 38, 42, 52 (Avg:47)
283 Isabella Circosta Ropa Park Bella Shakila 9 10:09:00 7.2, 8.6 7.88 33, 38, 38 (Avg:38)
Junior
269 Laura Kelly Love In The Mist 1 (BC) 6:10:00 12.6, 13.2 12.97 28, 42, 48 (Avg:45)
274 Lily Wheeler Yinbilliko Jackson 2 7:18:00 12.4, 9.7 10.96 33, 43, 55 (Avg:49)
268 Levi Robinson Karumba Beamish 3 7:46:00 10.4, 10.1 10.30 32, 44, 49 (Avg:46)
248 Emma Cole Prince Nakeel Spa 4 7:54:00 8.5, 12.3 10.13 36, 30, 43 (Avg:36)
258 Celia Hodgson Blake's Heaven Adventuress 5 7:57:00 10.1, 9.9 10.06 32, 38, 48 (Avg:43)
261 Poppy Kettlewell Oso Nicholas 6 8:23:00 10.2, 8.9 9.54 28, 38, 40 (Avg:39)
265 Tahnaya Mercieca Al-Marah Red Cardinal 6 8:23:00 10.2, 8.9 9.54 33, 40, 49 (Avg:44)
282 Makayla Circosta Tamlyn PL Amira Shari 8 10:09:00 7.2, 8.6 7.88 36, 38, 58 (Avg:48)